Black Mesa, Arizona
Current Conditions -  °F | °C
As of 2:53 AM on Saturday 01 Nov 2014 (Local Time) from KPGA Reporting Station
Scattered Clouds Scattered Clouds  
Wind Chill: 18°   Ceiling: Unl
Heat Index: 18°   Visibility: 10mi
Dew Point:   Wind: 14mph
Humidity: 43%   Direction: 140°SE
Pressure: 29.88"   Gusts: NA
Location:  36.6859°N, 110.268°W
Report Text: KPGA 010853Z AUTO 14012KT 10SM SCT075 18/06 A2988 RMK AO2 SLP067 T01830056 56007
Loading
Personal Weather Stations






























Interactive Weather Map
Tropical Storm Tracking
New forecast layout! Learn more

10-Day Weather Forecast

Advertisements
Track Severe Weather on mobile